sensor_id;sensor_type;location;lat;lon;timestamp;temperature;humidity
2945;DHT22;1482;51.398;7.128;2022-10-15T00:00:49;15.00;99.90
2945;DHT22;1482;51.398;7.128;2022-10-15T00:03:15;15.00;99.90
2945;DHT22;1482;51.398;7.128;2022-10-15T00:05:41;15.00;29.90
2945;DHT22;1482;51.398;7.128;2022-10-15T00:08:08;15.00;1.00
2945;DHT22;1482;51.398;7.128;2022-10-15T00:10:34;15.00;1.00
2945;DHT22;1482;51.398;7.128;2022-10-15T00:13:00;14.90;1.00
2945;DHT22;1482;51.398;7.128;2022-10-15T00:15:26;14.90;1.00
2945;DHT22;1482;51.398;7.128;2022-10-15T00:17:52;14.80;1.00
2945;DHT22;1482;51.398;7.128;2022-10-15T00:20:17;14.80;1.00
2945;DHT22;1482;51.398;7.128;2022-10-15T00:22:43;14.80;1.00
2945;DHT22;1482;51.398;7.128;2022-10-15T00:25:09;14.80;81.70
2945;DHT22;1482;51.398;7.128;2022-10-15T00:27:35;14.70;99.90
2945;DHT22;1482;51.398;7.128;2022-10-15T00:30:00;14.70;99.90
2945;DHT22;1482;51.398;7.128;2022-10-15T00:32:28;14.70;99.90
2945;DHT22;1482;51.398;7.128;2022-10-15T00:34:53;14.60;99.90
2945;DHT22;1482;51.398;7.128;2022-10-15T00:37:19;14.60;99.90
2945;DHT22;1482;51.398;7.128;2022-10-15T00:39:45;14.60;1.00
2945;DHT22;1482;51.398;7.128;2022-10-15T00:42:11;14.60;1.00
2945;DHT22;1482;51.398;7.128;2022-10-15T00:47:18;14.60;1.00
2945;DHT22;1482;51.398;7.128;2022-10-15T00:49:58;14.60;1.00
2945;DHT22;1482;51.398;7.128;2022-10-15T00:52:45;14.60;99.90
2945;DHT22;1482;51.398;7.128;2022-10-15T00:55:26;14.50;1.00
2945;DHT22;1482;51.398;7.128;2022-10-15T00:57:53;14.50;99.90
2945;DHT22;1482;51.398;7.128;2022-10-15T01:00:19;14.50;99.90
2945;DHT22;1482;51.398;7.128;2022-10-15T01:02:45;14.50;1.00
2945;DHT22;1482;51.398;7.128;2022-10-15T01:05:12;14.50;1.00
2945;DHT22;1482;51.398;7.128;2022-10-15T01:07:39;14.50;99.90
2945;DHT22;1482;51.398;7.128;2022-10-15T01:10:06;14.40;46.90
2945;DHT22;1482;51.398;7.128;2022-10-15T01:15:06;14.40;1.00
2945;DHT22;1482;51.398;7.128;2022-10-15T01:25:52;14.30;99.90
2945;DHT22;1482;51.398;7.128;2022-10-15T01:31:28;14.40;1.00
2945;DHT22;1482;51.398;7.128;2022-10-15T01:39:32;14.40;46.60
2945;DHT22;1482;51.398;7.128;2022-10-15T01:42:25;14.40;99.90
2945;DHT22;1482;51.398;7.128;2022-10-15T01:44:58;14.40;1.00
2945;DHT22;1482;51.398;7.128;2022-10-15T01:47:43;14.40;1.00
2945;DHT22;1482;51.398;7.128;2022-10-15T01:50:12;14.40;99.90
2945;DHT22;1482;51.398;7.128;2022-10-15T01:52:39;14.40;99.90
2945;DHT22;1482;51.398;7.128;2022-10-15T01:55:06;14.40;21.40
2945;DHT22;1482;51.398;7.128;2022-10-15T01:57:34;14.40;1.00
2945;DHT22;1482;51.398;7.128;2022-10-15T02:00:01;14.40;1.00
2945;DHT22;1482;51.398;7.128;2022-10-15T02:02:28;14.30;99.90
2945;DHT22;1482;51.398;7.128;2022-10-15T02:04:53;14.30;99.90
2945;DHT22;1482;51.398;7.128;2022-10-15T02:21:09;14.30;99.90
2945;DHT22;1482;51.398;7.128;2022-10-15T02:23:46;14.30;1.00
2945;DHT22;1482;51.398;7.128;2022-10-15T02:26:19;14.30;1.00
2945;DHT22;1482;51.398;7.128;2022-10-15T02:28:50;14.30;1.00
2945;DHT22;1482;51.398;7.128;2022-10-15T02:31:18;14.30;1.00
2945;DHT22;1482;51.398;7.128;2022-10-15T02:33:45;14.30;35.00
2945;DHT22;1482;51.398;7.128;2022-10-15T02:36:11;14.30;99.90
2945;DHT22;1482;51.398;7.128;2022-10-15T02:38:39;14.30;99.90
2945;DHT22;1482;51.398;7.128;2022-10-15T02:41:07;14.30;99.90
2945;DHT22;1482;51.398;7.128;2022-10-15T02:43:34;14.30;83.30
2945;DHT22;1482;51.398;7.128;2022-10-15T02:46:00;14.30;14.20
2945;DHT22;1482;51.398;7.128;2022-10-15T02:48:26;14.20;99.90
2945;DHT22;1482;51.398;7.128;2022-10-15T02:50:51;14.20;99.90
2945;DHT22;1482;51.398;7.128;2022-10-15T02:53:17;14.20;1.00
2945;DHT22;1482;51.398;7.128;2022-10-15T02:55:42;14.20;1.00
2945;DHT22;1482;51.398;7.128;2022-10-15T02:58:08;14.20;99.90
2945;DHT22;1482;51.398;7.128;2022-10-15T03:00:33;14.10;1.00
2945;DHT22;1482;51.398;7.128;2022-10-15T03:02:59;14.10;99.90
2945;DHT22;1482;51.398;7.128;2022-10-15T03:05:24;14.10;1.00
2945;DHT22;1482;51.398;7.128;2022-10-15T03:07:50;14.10;99.90
2945;DHT22;1482;51.398;7.128;2022-10-15T03:10:16;14.10;99.90
2945;DHT22;1482;51.398;7.128;2022-10-15T03:12:42;14.10;99.90
2945;DHT22;1482;51.398;7.128;2022-10-15T03:15:07;14.10;1.00
2945;DHT22;1482;51.398;7.128;2022-10-15T03:17:33;14.20;1.00
2945;DHT22;1482;51.398;7.128;2022-10-15T03:19:59;14.20;1.00
2945;DHT22;1482;51.398;7.128;2022-10-15T03:22:25;14.20;42.30
2945;DHT22;1482;51.398;7.128;2022-10-15T03:24:50;14.20;99.90
2945;DHT22;1482;51.398;7.128;2022-10-15T03:27:16;14.20;1.00
2945;DHT22;1482;51.398;7.128;2022-10-15T03:29:41;14.20;1.00
2945;DHT22;1482;51.398;7.128;2022-10-15T03:32:07;14.10;1.00
2945;DHT22;1482;51.398;7.128;2022-10-15T03:34:32;14.20;99.90
2945;DHT22;1482;51.398;7.128;2022-10-15T03:36:58;14.20;13.50
2945;DHT22;1482;51.398;7.128;2022-10-15T03:39:23;14.10;47.70
2945;DHT22;1482;51.398;7.128;2022-10-15T03:41:52;14.10;99.90
2945;DHT22;1482;51.398;7.128;2022-10-15T03:44:18;14.10;1.00
2945;DHT22;1482;51.398;7.128;2022-10-15T03:46:44;14.10;1.00
2945;DHT22;1482;51.398;7.128;2022-10-15T03:49:09;14.00;1.00
2945;DHT22;1482;51.398;7.128;2022-10-15T03:51:35;14.00;13.00
2945;DHT22;1482;51.398;7.128;2022-10-15T03:54:00;14.00;99.90
2945;DHT22;1482;51.398;7.128;2022-10-15T03:56:26;14.00;99.90
2945;DHT22;1482;51.398;7.128;2022-10-15T03:58:52;14.00;99.90
2945;DHT22;1482;51.398;7.128;2022-10-15T04:01:17;13.90;1.00
2945;DHT22;1482;51.398;7.128;2022-10-15T04:03:43;14.00;1.00
2945;DHT22;1482;51.398;7.128;2022-10-15T04:06:09;14.00;99.90
2945;DHT22;1482;51.398;7.128;2022-10-15T04:08:34;14.00;48.50
2945;DHT22;1482;51.398;7.128;2022-10-15T04:11:00;13.90;99.90
2945;DHT22;1482;51.398;7.128;2022-10-15T04:13:27;13.90;99.90
2945;DHT22;1482;51.398;7.128;2022-10-15T04:15:53;13.90;99.90
2945;DHT22;1482;51.398;7.128;2022-10-15T04:18:19;13.90;18.40
2945;DHT22;1482;51.398;7.128;2022-10-15T04:20:46;13.90;1.00
2945;DHT22;1482;51.398;7.128;2022-10-15T04:23:12;13.80;99.90
2945;DHT22;1482;51.398;7.128;2022-10-15T04:25:38;13.80;99.90
2945;DHT22;1482;51.398;7.128;2022-10-15T04:28:04;13.80;99.90
2945;DHT22;1482;51.398;7.128;2022-10-15T04:30:30;13.80;99.90
2945;DHT22;1482;51.398;7.128;2022-10-15T04:32:56;13.90;99.90
2945;DHT22;1482;51.398;7.128;2022-10-15T04:35:21;13.90;99.90
2945;DHT22;1482;51.398;7.128;2022-10-15T04:37:47;13.90;99.90
2945;DHT22;1482;51.398;7.128;2022-10-15T04:40:12;13.90;99.90
2945;DHT22;1482;51.398;7.128;2022-10-15T04:42:38;13.90;99.90
2945;DHT22;1482;51.398;7.128;2022-10-15T04:45:07;13.90;99.90
2945;DHT22;1482;51.398;7.128;2022-10-15T04:47:32;13.90;99.90
2945;DHT22;1482;51.398;7.128;2022-10-15T04:49:58;13.90;99.90
2945;DHT22;1482;51.398;7.128;2022-10-15T04:52:23;13.90;99.90
2945;DHT22;1482;51.398;7.128;2022-10-15T04:54:49;13.90;1.00
2945;DHT22;1482;51.398;7.128;2022-10-15T04:57:15;13.90;1.00
2945;DHT22;1482;51.398;7.128;2022-10-15T04:59:40;13.90;99.90
2945;DHT22;1482;51.398;7.128;2022-10-15T05:02:06;14.00;99.90
2945;DHT22;1482;51.398;7.128;2022-10-15T05:04:32;14.00;4.10
2945;DHT22;1482;51.398;7.128;2022-10-15T05:06:58;14.10;19.60
2945;DHT22;1482;51.398;7.128;2022-10-15T05:09:23;14.00;99.90
2945;DHT22;1482;51.398;7.128;2022-10-15T05:11:49;14.10;1.00
2945;DHT22;1482;51.398;7.128;2022-10-15T05:14:15;14.10;1.00
2945;DHT22;1482;51.398;7.128;2022-10-15T05:16:45;14.10;1.00
2945;DHT22;1482;51.398;7.128;2022-10-15T05:19:11;14.20;1.00
2945;DHT22;1482;51.398;7.128;2022-10-15T05:21:37;14.20;28.70
2945;DHT22;1482;51.398;7.128;2022-10-15T05:24:03;14.20;99.90
2945;DHT22;1482;51.398;7.128;2022-10-15T05:26:30;14.20;99.90
2945;DHT22;1482;51.398;7.128;2022-10-15T05:28:57;14.20;99.90
2945;DHT22;1482;51.398;7.128;2022-10-15T05:31:26;14.20;99.90
2945;DHT22;1482;51.398;7.128;2022-10-15T05:33:53;14.20;99.90
2945;DHT22;1482;51.398;7.128;2022-10-15T05:36:25;14.20;99.90
2945;DHT22;1482;51.398;7.128;2022-10-15T05:38:58;14.20;99.90
2945;DHT22;1482;51.398;7.128;2022-10-15T05:41:25;14.20;99.90
2945;DHT22;1482;51.398;7.128;2022-10-15T05:43:52;14.20;1.00
2945;DHT22;1482;51.398;7.128;2022-10-15T05:46:19;14.20;1.00
2945;DHT22;1482;51.398;7.128;2022-10-15T05:48:52;14.20;99.90
2945;DHT22;1482;51.398;7.128;2022-10-15T05:51:18;14.10;99.90
2945;DHT22;1482;51.398;7.128;2022-10-15T05:53:44;14.20;99.90
2945;DHT22;1482;51.398;7.128;2022-10-15T05:56:11;14.20;1.00
2945;DHT22;1482;51.398;7.128;2022-10-15T05:58:37;14.20;1.00
2945;DHT22;1482;51.398;7.128;2022-10-15T06:01:05;14.20;99.90
2945;DHT22;1482;51.398;7.128;2022-10-15T06:03:31;14.20;99.90
2945;DHT22;1482;51.398;7.128;2022-10-15T06:05:57;14.20;1.00
2945;DHT22;1482;51.398;7.128;2022-10-15T06:08:23;14.30;99.90
2945;DHT22;1482;51.398;7.128;2022-10-15T06:10:48;14.30;1.00
2945;DHT22;1482;51.398;7.128;2022-10-15T06:13:15;14.30;1.00
2945;DHT22;1482;51.398;7.128;2022-10-15T06:15:42;14.30;99.90
2945;DHT22;1482;51.398;7.128;2022-10-15T06:18:09;14.30;1.00
2945;DHT22;1482;51.398;7.128;2022-10-15T06:20:35;14.40;1.00
2945;DHT22;1482;51.398;7.128;2022-10-15T06:23:02;14.40;1.00
2945;DHT22;1482;51.398;7.128;2022-10-15T06:25:28;14.40;99.90
2945;DHT22;1482;51.398;7.128;2022-10-15T06:27:54;14.40;1.00
2945;DHT22;1482;51.398;7.128;2022-10-15T06:30:19;14.50;1.00
2945;DHT22;1482;51.398;7.128;2022-10-15T06:32:49;14.50;24.50
2945;DHT22;1482;51.398;7.128;2022-10-15T06:35:16;14.50;96.30
2945;DHT22;1482;51.398;7.128;2022-10-15T06:37:42;14.60;1.00
2945;DHT22;1482;51.398;7.128;2022-10-15T06:40:09;14.60;99.90
2945;DHT22;1482;51.398;7.128;2022-10-15T06:42:35;14.60;99.90
2945;DHT22;1482;51.398;7.128;2022-10-15T06:45:00;14.60;99.90
2945;DHT22;1482;51.398;7.128;2022-10-15T06:47:26;14.60;99.90
2945;DHT22;1482;51.398;7.128;2022-10-15T06:49:51;14.60;99.90
2945;DHT22;1482;51.398;7.128;2022-10-15T06:52:17;14.70;99.90
2945;DHT22;1482;51.398;7.128;2022-10-15T06:54:43;14.70;1.00
2945;DHT22;1482;51.398;7.128;2022-10-15T06:57:08;14.70;99.90
2945;DHT22;1482;51.398;7.128;2022-10-15T06:59:34;14.70;99.90
2945;DHT22;1482;51.398;7.128;2022-10-15T07:01:59;14.70;99.90
2945;DHT22;1482;51.398;7.128;2022-10-15T07:04:25;14.80;1.00
2945;DHT22;1482;51.398;7.128;2022-10-15T07:06:50;14.90;99.90
2945;DHT22;1482;51.398;7.128;2022-10-15T07:09:16;15.00;99.90
2945;DHT22;1482;51.398;7.128;2022-10-15T07:11:42;15.30;1.00
2945;DHT22;1482;51.398;7.128;2022-10-15T07:14:07;15.70;1.00
2945;DHT22;1482;51.398;7.128;2022-10-15T07:16:33;16.70;99.90
2945;DHT22;1482;51.398;7.128;2022-10-15T07:18:58;17.80;99.90
2945;DHT22;1482;51.398;7.128;2022-10-15T07:21:24;19.30;99.90
2945;DHT22;1482;51.398;7.128;2022-10-15T07:23:49;20.60;99.90
2945;DHT22;1482;51.398;7.128;2022-10-15T07:26:15;20.50;34.80
2945;DHT22;1482;51.398;7.128;2022-10-15T07:28:40;20.10;18.30
2945;DHT22;1482;51.398;7.128;2022-10-15T07:31:06;19.60;22.80
2945;DHT22;1482;51.398;7.128;2022-10-15T07:33:32;19.00;37.00
2945;DHT22;1482;51.398;7.128;2022-10-15T07:36:10;18.50;86.20
2945;DHT22;1482;51.398;7.128;2022-10-15T07:38:39;17.90;99.90
2945;DHT22;1482;51.398;7.128;2022-10-15T07:41:06;17.60;99.90
2945;DHT22;1482;51.398;7.128;2022-10-15T07:43:33;17.20;99.90
2945;DHT22;1482;51.398;7.128;2022-10-15T07:45:59;17.10;99.90
2945;DHT22;1482;51.398;7.128;2022-10-15T07:48:24;16.90;99.90
2945;DHT22;1482;51.398;7.128;2022-10-15T07:50:58;16.70;99.90
2945;DHT22;1482;51.398;7.128;2022-10-15T07:53:24;16.70;99.90
2945;DHT22;1482;51.398;7.128;2022-10-15T07:55:50;16.80;1.00
2945;DHT22;1482;51.398;7.128;2022-10-15T07:58:16;19.20;99.90
2945;DHT22;1482;51.398;7.128;2022-10-15T08:00:41;21.70;91.50
2945;DHT22;1482;51.398;7.128;2022-10-15T08:03:07;22.40;1.00
2945;DHT22;1482;51.398;7.128;2022-10-15T08:05:33;22.70;1.00
2945;DHT22;1482;51.398;7.128;2022-10-15T08:07:59;22.80;1.00
2945;DHT22;1482;51.398;7.128;2022-10-15T08:10:25;23.10;1.00
2945;DHT22;1482;51.398;7.128;2022-10-15T08:12:50;22.80;1.00
2945;DHT22;1482;51.398;7.128;2022-10-15T08:15:16;22.60;1.00
2945;DHT22;1482;51.398;7.128;2022-10-15T08:17:42;22.40;1.00
2945;DHT22;1482;51.398;7.128;2022-10-15T08:20:08;23.70;1.00
2945;DHT22;1482;51.398;7.128;2022-10-15T08:22:34;25.70;1.00
2945;DHT22;1482;51.398;7.128;2022-10-15T08:24:59;26.90;1.00
2945;DHT22;1482;51.398;7.128;2022-10-15T08:27:25;28.40;1.00
2945;DHT22;1482;51.398;7.128;2022-10-15T08:29:51;28.20;1.00
2945;DHT22;1482;51.398;7.128;2022-10-15T08:32:16;27.20;1.00
2945;DHT22;1482;51.398;7.128;2022-10-15T08:34:42;25.90;1.00
2945;DHT22;1482;51.398;7.128;2022-10-15T08:37:08;24.80;1.00
2945;DHT22;1482;51.398;7.128;2022-10-15T08:39:34;24.60;1.00
2945;DHT22;1482;51.398;7.128;2022-10-15T08:42:02;26.40;1.00
2945;DHT22;1482;51.398;7.128;2022-10-15T08:44:58;28.40;1.00
2945;DHT22;1482;51.398;7.128;2022-10-15T08:50:42;31.40;1.00
2945;DHT22;1482;51.398;7.128;2022-10-15T08:53:15;31.90;1.00
2945;DHT22;1482;51.398;7.128;2022-10-15T08:55:44;33.00;1.00
2945;DHT22;1482;51.398;7.128;2022-10-15T09:01:49;33.70;1.00
2945;DHT22;1482;51.398;7.128;2022-10-15T09:06:53;33.80;1.00
2945;DHT22;1482;51.398;7.128;2022-10-15T09:12:30;32.40;1.00
2945;DHT22;1482;51.398;7.128;2022-10-15T09:14:59;30.00;1.00
2945;DHT22;1482;51.398;7.128;2022-10-15T09:17:28;28.80;1.00
2945;DHT22;1482;51.398;7.128;2022-10-15T09:19:57;28.00;1.00
2945;DHT22;1482;51.398;7.128;2022-10-15T09:22:28;26.40;1.00
2945;DHT22;1482;51.398;7.128;2022-10-15T09:24:55;25.60;1.00
2945;DHT22;1482;51.398;7.128;2022-10-15T09:27:33;24.30;1.00
2945;DHT22;1482;51.398;7.128;2022-10-15T09:30:15;25.20;1.00
2945;DHT22;1482;51.398;7.128;2022-10-15T09:32:54;26.20;1.00
2945;DHT22;1482;51.398;7.128;2022-10-15T09:35:29;27.90;1.00
2945;DHT22;1482;51.398;7.128;2022-10-15T09:38:12;29.30;1.00
2945;DHT22;1482;51.398;7.128;2022-10-15T09:43:23;28.60;1.00
2945;DHT22;1482;51.398;7.128;2022-10-15T09:45:53;27.00;1.00
2945;DHT22;1482;51.398;7.128;2022-10-15T09:48:20;25.60;1.00
2945;DHT22;1482;51.398;7.128;2022-10-15T09:50:57;24.70;1.00
2945;DHT22;1482;51.398;7.128;2022-10-15T09:53:43;24.50;1.00
2945;DHT22;1482;51.398;7.128;2022-10-15T09:56:18;24.20;1.00
2945;DHT22;1482;51.398;7.128;2022-10-15T09:58:55;23.00;1.00
2945;DHT22;1482;51.398;7.128;2022-10-15T10:01:26;22.70;1.00
2945;DHT22;1482;51.398;7.128;2022-10-15T10:04:17;22.10;1.00
2945;DHT22;1482;51.398;7.128;2022-10-15T10:06:54;21.30;1.00
2945;DHT22;1482;51.398;7.128;2022-10-15T10:09:27;20.90;1.00
2945;DHT22;1482;51.398;7.128;2022-10-15T10:12:01;20.30;1.00
2945;DHT22;1482;51.398;7.128;2022-10-15T10:14:43;20.10;1.00
2945;DHT22;1482;51.398;7.128;2022-10-15T10:17:16;20.10;1.00
2945;DHT22;1482;51.398;7.128;2022-10-15T10:19:43;20.30;1.00
2945;DHT22;1482;51.398;7.128;2022-10-15T10:22:18;20.60;1.00
2945;DHT22;1482;51.398;7.128;2022-10-15T10:24:45;20.80;1.00
2945;DHT22;1482;51.398;7.128;2022-10-15T10:27:21;21.00;1.00
2945;DHT22;1482;51.398;7.128;2022-10-15T10:30:01;21.10;1.00
2945;DHT22;1482;51.398;7.128;2022-10-15T10:32:30;21.10;1.00
2945;DHT22;1482;51.398;7.128;2022-10-15T10:34:57;21.00;1.00
2945;DHT22;1482;51.398;7.128;2022-10-15T10:37:24;20.70;1.00
2945;DHT22;1482;51.398;7.128;2022-10-15T10:39:58;20.50;1.00
2945;DHT22;1482;51.398;7.128;2022-10-15T10:42:32;19.90;1.00
2945;DHT22;1482;51.398;7.128;2022-10-15T10:45:20;19.70;27.60
2945;DHT22;1482;51.398;7.128;2022-10-15T10:47:49;19.60;56.10
2945;DHT22;1482;51.398;7.128;2022-10-15T10:50:34;19.60;95.60
2945;DHT22;1482;51.398;7.128;2022-10-15T10:53:24;19.40;79.30
2945;DHT22;1482;51.398;7.128;2022-10-15T10:55:52;19.20;99.90
2945;DHT22;1482;51.398;7.128;2022-10-15T10:58:21;19.20;99.90
2945;DHT22;1482;51.398;7.128;2022-10-15T11:00:50;19.30;99.90
2945;DHT22;1482;51.398;7.128;2022-10-15T11:03:33;19.20;99.90
2945;DHT22;1482;51.398;7.128;2022-10-15T11:17:22;19.10;99.90
2945;DHT22;1482;51.398;7.128;2022-10-15T11:19:57;19.20;99.90
2945;DHT22;1482;51.398;7.128;2022-10-15T11:22:38;19.30;99.90
2945;DHT22;1482;51.398;7.128;2022-10-15T11:25:27;19.50;99.90
2945;DHT22;1482;51.398;7.128;2022-10-15T11:31:11;19.30;99.90
2945;DHT22;1482;51.398;7.128;2022-10-15T11:36:42;19.50;99.90
2945;DHT22;1482;51.398;7.128;2022-10-15T11:44:38;19.40;99.90
2945;DHT22;1482;51.398;7.128;2022-10-15T11:55:16;19.80;99.90
2945;DHT22;1482;51.398;7.128;2022-10-15T11:57:44;19.70;99.90
2945;DHT22;1482;51.398;7.128;2022-10-15T12:02:58;19.70;99.90
2945;DHT22;1482;51.398;7.128;2022-10-15T12:05:36;19.50;99.90
2945;DHT22;1482;51.398;7.128;2022-10-15T12:08:03;19.40;99.90
2945;DHT22;1482;51.398;7.128;2022-10-15T12:13:04;19.60;99.90
2945;DHT22;1482;51.398;7.128;2022-10-15T12:15:47;19.70;99.90
2945;DHT22;1482;51.398;7.128;2022-10-15T12:20:47;19.70;99.90
2945;DHT22;1482;51.398;7.128;2022-10-15T12:23:25;19.60;99.90
2945;DHT22;1482;51.398;7.128;2022-10-15T12:28:53;19.40;99.90
2945;DHT22;1482;51.398;7.128;2022-10-15T12:31:19;19.30;99.90
2945;DHT22;1482;51.398;7.128;2022-10-15T12:33:55;19.40;99.90
2945;DHT22;1482;51.398;7.128;2022-10-15T12:36:29;19.40;99.90
2945;DHT22;1482;51.398;7.128;2022-10-15T12:39:05;19.40;99.90
2945;DHT22;1482;51.398;7.128;2022-10-15T12:44:17;19.20;99.90
2945;DHT22;1482;51.398;7.128;2022-10-15T12:46:44;19.30;99.90
2945;DHT22;1482;51.398;7.128;2022-10-15T12:51:56;19.30;99.90
2945;DHT22;1482;51.398;7.128;2022-10-15T12:54:45;19.50;99.90
2945;DHT22;1482;51.398;7.128;2022-10-15T12:59:57;19.30;99.90
2945;DHT22;1482;51.398;7.128;2022-10-15T13:02:41;19.40;99.90
2945;DHT22;1482;51.398;7.128;2022-10-15T13:05:29;19.50;99.90
2945;DHT22;1482;51.398;7.128;2022-10-15T13:07:58;19.60;99.90
2945;DHT22;1482;51.398;7.128;2022-10-15T13:10:37;19.70;99.90
2945;DHT22;1482;51.398;7.128;2022-10-15T13:13:05;19.80;99.90
2945;DHT22;1482;51.398;7.128;2022-10-15T13:15:33;19.90;99.90
2945;DHT22;1482;51.398;7.128;2022-10-15T13:18:05;20.00;99.90
2945;DHT22;1482;51.398;7.128;2022-10-15T13:20:41;20.10;99.90
2945;DHT22;1482;51.398;7.128;2022-10-15T13:23:17;20.20;99.90
2945;DHT22;1482;51.398;7.128;2022-10-15T13:25:43;20.20;99.90
2945;DHT22;1482;51.398;7.128;2022-10-15T13:28:29;20.20;99.90
2945;DHT22;1482;51.398;7.128;2022-10-15T13:30:56;20.20;99.90
2945;DHT22;1482;51.398;7.128;2022-10-15T13:33:25;20.30;99.90
2945;DHT22;1482;51.398;7.128;2022-10-15T13:35:51;20.30;99.90
2945;DHT22;1482;51.398;7.128;2022-10-15T13:38:24;20.40;99.90
2945;DHT22;1482;51.398;7.128;2022-10-15T13:40:52;20.60;99.90
2945;DHT22;1482;51.398;7.128;2022-10-15T13:43:23;20.60;99.90
2945;DHT22;1482;51.398;7.128;2022-10-15T13:45:59;20.70;99.90
2945;DHT22;1482;51.398;7.128;2022-10-15T13:48:28;20.90;99.40
2945;DHT22;1482;51.398;7.128;2022-10-15T13:50:56;20.90;88.70
2945;DHT22;1482;51.398;7.128;2022-10-15T13:55:55;20.90;59.30
2945;DHT22;1482;51.398;7.128;2022-10-15T13:58:35;20.90;57.60
2945;DHT22;1482;51.398;7.128;2022-10-15T14:01:09;20.90;50.90
2945;DHT22;1482;51.398;7.128;2022-10-15T14:03:48;20.90;57.50
2945;DHT22;1482;51.398;7.128;2022-10-15T14:06:25;20.80;68.30
2945;DHT22;1482;51.398;7.128;2022-10-15T14:08:56;20.80;55.10
2945;DHT22;1482;51.398;7.128;2022-10-15T14:11:22;20.60;53.00
2945;DHT22;1482;51.398;7.128;2022-10-15T14:13:51;20.60;59.30
2945;DHT22;1482;51.398;7.128;2022-10-15T14:16:26;20.50;71.40
2945;DHT22;1482;51.398;7.128;2022-10-15T14:19:18;20.30;79.90
2945;DHT22;1482;51.398;7.128;2022-10-15T14:21:46;20.20;87.10
2945;DHT22;1482;51.398;7.128;2022-10-15T14:24:19;20.20;93.70
2945;DHT22;1482;51.398;7.128;2022-10-15T14:26:46;20.10;99.90
2945;DHT22;1482;51.398;7.128;2022-10-15T14:29:27;20.10;99.90
2945;DHT22;1482;51.398;7.128;2022-10-15T14:31:53;20.00;99.90
2945;DHT22;1482;51.398;7.128;2022-10-15T14:34:37;19.90;99.90
2945;DHT22;1482;51.398;7.128;2022-10-15T14:42:44;20.00;99.90
2945;DHT22;1482;51.398;7.128;2022-10-15T14:47:45;20.00;99.90
2945;DHT22;1482;51.398;7.128;2022-10-15T14:50:11;20.10;99.90
2945;DHT22;1482;51.398;7.128;2022-10-15T14:52:43;20.00;99.90
2945;DHT22;1482;51.398;7.128;2022-10-15T14:55:32;20.20;99.90
2945;DHT22;1482;51.398;7.128;2022-10-15T14:58:08;20.20;99.90
2945;DHT22;1482;51.398;7.128;2022-10-15T15:00:45;20.20;99.90
2945;DHT22;1482;51.398;7.128;2022-10-15T15:03:18;20.20;99.90
2945;DHT22;1482;51.398;7.128;2022-10-15T15:05:49;20.10;99.90
2945;DHT22;1482;51.398;7.128;2022-10-15T15:08:17;20.10;99.90
2945;DHT22;1482;51.398;7.128;2022-10-15T15:10:43;20.00;99.90
2945;DHT22;1482;51.398;7.128;2022-10-15T15:13:17;20.00;99.90
2945;DHT22;1482;51.398;7.128;2022-10-15T15:15:44;19.90;99.90
2945;DHT22;1482;51.398;7.128;2022-10-15T15:18:10;19.90;99.90
2945;DHT22;1482;51.398;7.128;2022-10-15T15:20:35;20.00;99.90
2945;DHT22;1482;51.398;7.128;2022-10-15T15:23:04;20.00;99.90
2945;DHT22;1482;51.398;7.128;2022-10-15T15:25:32;19.90;99.90
2945;DHT22;1482;51.398;7.128;2022-10-15T15:27:59;19.70;99.90
2945;DHT22;1482;51.398;7.128;2022-10-15T15:30:29;19.70;99.90
2945;DHT22;1482;51.398;7.128;2022-10-15T15:32:56;19.50;99.90
2945;DHT22;1482;51.398;7.128;2022-10-15T15:37:56;19.40;99.90
2945;DHT22;1482;51.398;7.128;2022-10-15T15:40:21;19.40;99.90
2945;DHT22;1482;51.398;7.128;2022-10-15T15:42:47;19.40;99.90
2945;DHT22;1482;51.398;7.128;2022-10-15T15:45:21;19.40;99.90
2945;DHT22;1482;51.398;7.128;2022-10-15T15:47:47;19.30;99.90
2945;DHT22;1482;51.398;7.128;2022-10-15T15:50:13;19.30;99.90
2945;DHT22;1482;51.398;7.128;2022-10-15T15:52:39;19.20;99.90
2945;DHT22;1482;51.398;7.128;2022-10-15T15:55:05;19.10;99.90
2945;DHT22;1482;51.398;7.128;2022-10-15T15:57:31;19.10;99.90
2945;DHT22;1482;51.398;7.128;2022-10-15T15:59:57;19.10;99.90
2945;DHT22;1482;51.398;7.128;2022-10-15T16:02:22;19.00;99.90
2945;DHT22;1482;51.398;7.128;2022-10-15T16:04:48;18.80;99.90
2945;DHT22;1482;51.398;7.128;2022-10-15T16:07:13;18.80;99.90
2945;DHT22;1482;51.398;7.128;2022-10-15T16:09:39;18.70;99.90
2945;DHT22;1482;51.398;7.128;2022-10-15T16:12:05;18.60;1.00
2945;DHT22;1482;51.398;7.128;2022-10-15T16:14:30;18.50;1.00
2945;DHT22;1482;51.398;7.128;2022-10-15T16:16:57;18.40;1.00
2945;DHT22;1482;51.398;7.128;2022-10-15T16:19:22;18.30;1.00
2945;DHT22;1482;51.398;7.128;2022-10-15T16:21:48;18.20;1.00
2945;DHT22;1482;51.398;7.128;2022-10-15T16:24:14;18.20;1.00
2945;DHT22;1482;51.398;7.128;2022-10-15T16:26:39;18.20;1.00
2945;DHT22;1482;51.398;7.128;2022-10-15T16:29:05;18.20;1.00
2945;DHT22;1482;51.398;7.128;2022-10-15T16:31:30;18.20;1.00
2945;DHT22;1482;51.398;7.128;2022-10-15T16:34:01;18.10;1.00
2945;DHT22;1482;51.398;7.128;2022-10-15T16:36:27;18.10;1.00
2945;DHT22;1482;51.398;7.128;2022-10-15T16:38:52;18.00;1.00
2945;DHT22;1482;51.398;7.128;2022-10-15T16:41:18;18.00;1.00
2945;DHT22;1482;51.398;7.128;2022-10-15T16:43:44;17.90;15.10
2945;DHT22;1482;51.398;7.128;2022-10-15T16:46:11;17.90;77.70
2945;DHT22;1482;51.398;7.128;2022-10-15T16:48:37;17.80;99.90
2945;DHT22;1482;51.398;7.128;2022-10-15T16:51:08;17.70;99.90
2945;DHT22;1482;51.398;7.128;2022-10-15T16:53:35;17.70;99.90
2945;DHT22;1482;51.398;7.128;2022-10-15T16:56:07;17.70;1.00
2945;DHT22;1482;51.398;7.128;2022-10-15T16:58:32;17.70;1.00
2945;DHT22;1482;51.398;7.128;2022-10-15T17:00:59;17.60;1.00
2945;DHT22;1482;51.398;7.128;2022-10-15T17:03:25;17.60;1.00
2945;DHT22;1482;51.398;7.128;2022-10-15T17:05:59;17.50;1.00
2945;DHT22;1482;51.398;7.128;2022-10-15T17:08:49;17.50;1.00
2945;DHT22;1482;51.398;7.128;2022-10-15T17:11:42;17.50;1.00
2945;DHT22;1482;51.398;7.128;2022-10-15T17:14:11;17.50;1.00
2945;DHT22;1482;51.398;7.128;2022-10-15T17:16:43;17.50;1.00
2945;DHT22;1482;51.398;7.128;2022-10-15T17:19:10;17.50;1.00
2945;DHT22;1482;51.398;7.128;2022-10-15T17:21:37;17.50;99.90
2945;DHT22;1482;51.398;7.128;2022-10-15T17:24:05;17.50;99.90
2945;DHT22;1482;51.398;7.128;2022-10-15T17:26:34;17.50;99.90
2945;DHT22;1482;51.398;7.128;2022-10-15T17:29:08;17.40;99.90
2945;DHT22;1482;51.398;7.128;2022-10-15T17:31:34;17.30;99.90
2945;DHT22;1482;51.398;7.128;2022-10-15T17:34:03;17.30;99.90
2945;DHT22;1482;51.398;7.128;2022-10-15T17:36:30;17.30;99.90
2945;DHT22;1482;51.398;7.128;2022-10-15T17:38:58;17.30;99.90
2945;DHT22;1482;51.398;7.128;2022-10-15T17:41:25;17.30;99.90
2945;DHT22;1482;51.398;7.128;2022-10-15T17:43:52;17.30;1.00
2945;DHT22;1482;51.398;7.128;2022-10-15T17:46:22;17.30;1.00
2945;DHT22;1482;51.398;7.128;2022-10-15T17:48:50;17.30;1.00
2945;DHT22;1482;51.398;7.128;2022-10-15T17:51:18;17.30;1.00
2945;DHT22;1482;51.398;7.128;2022-10-15T17:53:44;17.30;1.00
2945;DHT22;1482;51.398;7.128;2022-10-15T17:56:18;17.30;1.00
2945;DHT22;1482;51.398;7.128;2022-10-15T17:58:45;17.40;1.00
2945;DHT22;1482;51.398;7.128;2022-10-15T18:01:13;17.30;99.90
2945;DHT22;1482;51.398;7.128;2022-10-15T18:03:39;17.30;99.90
2945;DHT22;1482;51.398;7.128;2022-10-15T18:06:19;17.30;99.90
2945;DHT22;1482;51.398;7.128;2022-10-15T18:08:45;17.30;99.90
2945;DHT22;1482;51.398;7.128;2022-10-15T18:11:13;17.20;99.90
2945;DHT22;1482;51.398;7.128;2022-10-15T18:13:40;17.30;99.90